Time;durP1;ratioP1;P1;durP2;ratioP2;P2;SDS_P1;SDS_P2;PMS_P1;PMS_P2;Temp;Humidity;BMP_temperature;BMP_pressure;BME280_temperature;BME280_humidity;BME280_pressure;Samples;Min_cycle;Max_cycle;Signal;HPM_P1;HPM_P2
2023/07/28 00:00:39;;;;;;;45.70;2.47;;;;;;;24.87;54.40;98365.69;7315956;19;129128;-42
2023/07/28 00:03:04;;;;;;;25.97;1.40;;;;;;;25.04;54.86;98363.56;7317634;19;129203;-41
2023/07/28 00:05:29;;;;;;;87.53;5.40;;;;;;;25.10;55.35;98381.22;7314415;19;130131;-41
2023/07/28 00:07:55;;;;;;;30.27;1.67;;;;;;;25.12;55.74;98366.06;7315688;19;130484;-41
2023/07/28 00:10:20;;;;;;;58.37;3.33;;;;;;;25.14;55.64;98366.69;7315915;19;129051;-40
2023/07/28 00:12:45;;;;;;;22.77;1.33;;;;;;;25.16;55.75;98367.28;7314792;19;129014;-41
2023/07/28 00:15:11;;;;;;;8.07;0.60;;;;;;;25.07;55.36;98342.94;7315692;19;129149;-40
2023/07/28 00:17:36;;;;;;;47.30;2.63;;;;;;;25.18;56.24;98350.31;7314455;19;130315;-41
2023/07/28 00:20:02;;;;;;;28.83;1.67;;;;;;;25.20;55.46;98358.84;7316794;19;129251;-42
2023/07/28 00:22:27;;;;;;;48.03;2.87;;;;;;;25.20;56.21;98355.38;7314855;19;129167;-42
2023/07/28 00:24:53;;;;;;;21.57;1.37;;;;;;;25.21;55.61;98343.84;7316166;19;129849;-39
2023/07/28 00:27:18;;;;;;;49.97;2.80;;;;;;;25.23;55.65;98347.09;7314839;19;130870;-40
2023/07/28 00:29:44;;;;;;;26.30;1.40;;;;;;;25.20;55.85;98343.06;7315290;19;129005;-41
2023/07/28 00:32:09;;;;;;;56.67;3.30;;;;;;;24.97;52.98;98346.94;7314448;19;130270;-42
2023/07/28 00:34:34;;;;;;;48.03;2.90;;;;;;;24.73;51.76;98347.34;7314233;19;130116;-38
2023/07/28 00:37:00;;;;;;;68.17;3.90;;;;;;;24.66;52.01;98343.81;7312765;19;129314;-41
2023/07/28 00:39:25;;;;;;;27.57;1.50;;;;;;;24.70;53.06;98347.72;7316746;19;129457;-42
2023/07/28 00:41:50;;;;;;;24.20;1.33;;;;;;;24.92;55.25;98338.81;7312428;19;130652;-38
2023/07/28 00:44:17;;;;;;;24.30;1.27;;;;;;;25.04;54.85;98345.16;7313416;19;129562;-42
2023/07/28 00:46:43;;;;;;;49.80;2.70;;;;;;;25.09;55.30;98334.88;7313931;19;131165;-41
2023/07/28 00:49:08;;;;;;;24.73;1.27;;;;;;;25.11;55.41;98332.84;7316328;19;129846;-32
2023/07/28 00:51:36;;;;;;;29.60;1.63;;;;;;;25.13;56.08;98331.66;7314514;19;129278;-31
2023/07/28 00:54:04;;;;;;;32.03;1.67;;;;;;;25.14;56.13;98343.00;7313725;19;130226;-32
2023/07/28 00:56:30;;;;;;;53.90;2.75;;;;;;;25.16;56.17;98335.72;7314002;19;131153;-34
2023/07/28 00:58:56;;;;;;;65.97;4.03;;;;;;;25.17;55.77;98337.38;7314924;19;129513;-34
2023/07/28 01:01:22;;;;;;;29.27;1.57;;;;;;;25.06;55.90;98315.03;7314588;19;129495;-37
2023/07/28 01:03:48;;;;;;;35.35;1.98;;;;;;;25.08;55.73;98320.09;7312424;19;129715;-32
2023/07/28 01:06:32;;;;;;;33.80;1.87;;;;;;;25.23;56.45;98331.31;7314393;19;129298;-38
2023/07/28 01:09:10;;;;;;;34.40;1.95;;;;;;;25.21;56.79;98330.69;7313403;19;128600;-38
2023/07/28 01:11:35;;;;;;;37.72;2.17;;;;;;;25.17;56.21;98332.91;7315452;19;128982;-37
2023/07/28 01:14:01;;;;;;;40.37;2.33;;;;;;;24.72;51.76;98335.19;7311853;19;129986;-40
2023/07/28 01:16:26;;;;;;;62.13;3.63;;;;;;;24.65;51.71;98334.31;7312074;19;130429;-32
2023/07/28 01:18:52;;;;;;;41.40;2.30;;;;;;;24.65;51.21;98339.56;7313971;19;130567;-37
2023/07/28 01:21:23;;;;;;;38.60;2.43;;;;;;;24.79;55.35;98325.56;7313881;19;129240;-33
2023/07/28 01:24:01;;;;;;;29.42;1.60;;;;;;;24.87;55.66;98320.97;7312904;19;130170;-35
2023/07/28 01:26:36;;;;;;;30.02;1.85;;;;;;;25.06;55.60;98327.34;7312580;19;130485;-33
2023/07/28 01:29:03;;;;;;;25.92;1.42;;;;;;;25.07;55.03;98332.41;7314190;19;129585;-33
2023/07/28 01:31:29;;;;;;;45.35;2.50;;;;;;;25.10;55.90;98328.63;7313468;19;130130;-31
2023/07/28 01:33:54;;;;;;;13.57;0.83;;;;;;;25.11;55.80;98338.13;7313327;19;129451;-37
2023/07/28 01:36:20;;;;;;;44.43;2.67;;;;;;;25.13;56.05;98330.84;7312024;19;129095;-37
2023/07/28 01:38:45;;;;;;;16.90;1.10;;;;;;;25.13;56.21;98331.66;7313421;19;129625;-38
2023/07/28 01:41:11;;;;;;;45.07;2.40;;;;;;;25.15;55.79;98339.38;7313772;19;128776;-38
2023/07/28 01:43:36;;;;;;;61.23;3.67;;;;;;;25.16;56.03;98330.47;7311455;19;129515;-37
2023/07/28 01:46:02;;;;;;;23.50;1.33;;;;;;;25.18;55.60;98331.09;7313075;19;130612;-39
2023/07/28 01:48:27;;;;;;;30.13;1.60;;;;;;;25.19;56.13;98336.16;7313294;19;129433;-39
2023/07/28 01:50:52;;;;;;;40.63;2.33;;;;;;;25.20;56.30;98323.81;7313688;19;130598;-40
2023/07/28 01:53:18;;;;;;;64.73;3.67;;;;;;;25.16;54.42;98327.81;7310666;19;130130;-39
2023/07/28 01:55:43;;;;;;;61.77;3.43;;;;;;;24.72;52.14;98327.31;7312679;19;129486;-37
2023/07/28 01:58:09;;;;;;;37.43;2.03;;;;;;;24.63;52.34;98334.50;7313494;19;130127;-39
2023/07/28 02:00:35;;;;;;;29.57;1.57;;;;;;;24.59;51.37;98327.19;7314319;19;131636;-38
2023/07/28 02:03:02;;;;;;;35.83;2.07;;;;;;;24.79;54.61;98328.19;7311731;19;129632;-40
2023/07/28 02:05:28;;;;;;;25.42;1.35;;;;;;;24.95;54.67;98327.91;7313412;19;129182;-40
2023/07/28 02:07:53;;;;;;;72.37;4.27;;;;;;;25.03;55.15;98330.38;7312153;19;130412;-39
2023/07/28 02:10:19;;;;;;;25.13;1.33;;;;;;;25.06;55.07;98328.19;7314363;19;129196;-39
2023/07/28 02:12:44;;;;;;;8.00;0.50;;;;;;;25.10;55.97;98331.25;7312353;19;129261;-38
2023/07/28 02:15:12;;;;;;;44.80;2.57;;;;;;;25.10;55.95;98324.16;7311838;19;130323;-39
2023/07/28 02:17:38;;;;;;;49.85;2.60;;;;;;;25.11;55.66;98335.47;7310378;19;129257;-37
2023/07/28 02:20:04;;;;;;;59.47;3.47;;;;;;;25.03;56.00;98311.97;7313177;19;129192;-39
2023/07/28 02:22:29;;;;;;;29.23;1.67;;;;;;;25.15;56.24;98337.56;7312477;19;131001;-39
2023/07/28 02:24:55;;;;;;;9.47;0.60;;;;;;;25.17;55.77;98332.09;7312853;19;130377;-37
2023/07/28 02:27:20;;;;;;;55.07;3.10;;;;;;;25.19;55.63;98330.06;7311946;19;130078;-38
2023/07/28 02:29:46;;;;;;;14.77;0.83;;;;;;;25.18;55.74;98331.09;7313459;19;128935;-37
2023/07/28 02:32:11;;;;;;;46.37;2.83;;;;;;;25.19;56.21;98330.88;7311429;19;130968;-37
2023/07/28 02:34:36;;;;;;;24.37;1.33;;;;;;;25.11;54.23;98333.69;7308860;19;130806;-38
2023/07/28 02:37:02;;;;;;;67.30;4.13;;;;;;;24.76;52.15;98332.00;7309796;19;129374;-37
2023/07/28 02:39:27;;;;;;;64.27;3.83;;;;;;;24.67;51.51;98332.31;7312278;19;129206;-39
2023/07/28 02:41:53;;;;;;;23.70;1.37;;;;;;;24.61;51.04;98325.19;7311569;19;130828;-39
2023/07/28 02:44:18;;;;;;;36.17;1.90;;;;;;;24.80;55.14;98325.38;7308491;19;129640;-40
2023/07/28 02:46:44;;;;;;;39.10;2.17;;;;;;;24.96;54.80;98319.00;7310745;19;130456;-35
2023/07/28 02:49:09;;;;;;;24.70;1.43;;;;;;;24.94;54.83;98300.00;7311087;19;129968;-38
2023/07/28 02:51:34;;;;;;;69.93;4.17;;;;;;;25.06;55.47;98309.78;7310543;19;129393;-36
2023/07/28 02:54:00;;;;;;;55.43;2.90;;;;;;;25.09;55.46;98313.84;7310718;19;130349;-38
2023/07/28 02:56:26;;;;;;;34.73;1.90;;;;;;;25.07;55.31;98310.59;7310837;19;129567;-37
2023/07/28 02:58:51;;;;;;;30.57;1.83;;;;;;;25.11;55.87;98303.91;7311154;19;130231;-38
2023/07/28 03:01:17;;;;;;;17.50;0.90;;;;;;;25.14;55.48;98306.19;7310596;19;130281;-39
2023/07/28 03:03:43;;;;;;;70.60;4.13;;;;;;;25.14;55.55;98301.72;7308474;19;131077;-39
2023/07/28 03:06:08;;;;;;;18.07;1.10;;;;;;;25.17;56.13;98311.06;7309307;19;129645;-38
2023/07/28 03:08:33;;;;;;;25.37;1.40;;;;;;;25.07;56.11;98297.44;7310716;19;130472;-38
2023/07/28 03:11:02;;;;;;;40.93;2.53;;;;;;;25.17;56.04;98308.44;7309069;19;129011;-39
2023/07/28 03:13:27;;;;;;;58.70;3.30;;;;;;;25.16;56.43;98304.97;7307689;19;131069;-33
2023/07/28 03:15:53;;;;;;;45.40;2.70;;;;;;;25.14;55.32;98312.25;7309994;19;128916;-39
2023/07/28 03:18:18;;;;;;;23.70;1.33;;;;;;;24.69;52.11;98315.38;7310217;19;129270;-36
2023/07/28 03:20:43;;;;;;;37.67;2.23;;;;;;;24.68;52.32;98318.19;7310425;19;129489;-36
2023/07/28 03:23:09;;;;;;;77.27;4.37;;;;;;;24.61;51.26;98319.94;7308650;19;129191;-36
2023/07/28 03:25:34;;;;;;;21.53;1.20;;;;;;;24.78;54.89;98321.28;7311640;19;129961;-38
2023/07/28 03:27:59;;;;;;;36.40;2.07;;;;;;;24.83;54.72;98308.38;7310035;19;130213;-38
2023/07/28 03:30:25;;;;;;;29.47;1.57;;;;;;;25.03;54.92;98330.38;7309968;19;130106;-40
2023/07/28 03:32:50;;;;;;;43.57;2.40;;;;;;;24.99;55.44;98316.00;7309430;19;131228;-40
2023/07/28 03:35:16;;;;;;;44.30;2.80;;;;;;;25.08;55.51;98334.06;7310162;19;128868;-39
2023/07/28 03:37:41;;;;;;;32.53;1.83;;;;;;;25.08;55.32;98331.44;7308042;19;129310;-40
2023/07/28 03:40:07;;;;;;;54.33;3.07;;;;;;;25.06;55.74;98330.81;7309301;19;130727;-39
2023/07/28 03:42:32;;;;;;;17.77;1.03;;;;;;;25.05;56.11;98323.13;7309514;19;130221;-40
2023/07/28 03:44:58;;;;;;;22.90;1.27;;;;;;;25.09;56.21;98322.53;7310569;19;129278;-42
2023/07/28 03:47:23;;;;;;;43.80;2.57;;;;;;;25.14;55.91;98328.03;7308695;19;129511;-41
2023/07/28 03:49:49;;;;;;;65.83;3.43;;;;;;;25.15;56.16;98334.09;7309724;19;130387;-41
2023/07/28 03:52:14;;;;;;;50.13;2.93;;;;;;;25.15;56.16;98334.09;7308706;19;129159;-41
2023/07/28 03:54:40;;;;;;;22.23;1.23;;;;;;;25.15;56.23;98334.94;7307709;19;130158;-40
2023/07/28 03:57:05;;;;;;;45.57;2.87;;;;;;;25.06;54.00;98333.44;7307305;19;129629;-40
2023/07/28 03:59:30;;;;;;;57.77;3.23;;;;;;;24.69;52.34;98328.53;7308462;19;129327;-42
2023/07/28 04:01:56;;;;;;;25.97;1.40;;;;;;;24.65;51.40;98332.50;7309280;19;129126;-41
2023/07/28 04:04:21;;;;;;;39.73;2.53;;;;;;;24.58;51.85;98336.09;7306145;19;130294;-41
2023/07/28 04:06:53;;;;;;;30.50;1.67;;;;;;;24.79;55.46;98328.19;7309091;19;128980;-39
2023/07/28 04:09:19;;;;;;;45.67;2.42;;;;;;;24.95;55.04;98333.97;7308526;19;130307;-39
2023/07/28 04:11:44;;;;;;;28.07;1.60;;;;;;;25.00;55.13;98330.75;7308763;19;129300;-40
2023/07/28 04:14:10;;;;;;;12.23;0.83;;;;;;;24.95;55.24;98317.38;7306479;19;128736;-41
2023/07/28 04:16:35;;;;;;;80.43;4.63;;;;;;;25.06;55.40;98333.44;7309122;19;130045;-39
2023/07/28 04:19:00;;;;;;;49.63;2.70;;;;;;;25.08;56.06;98333.25;7315295;19;129713;-41
2023/07/28 04:21:26;;;;;;;25.40;1.57;;;;;;;25.09;56.14;98340.16;7315088;19;129630;-42
2023/07/28 04:23:52;;;;;;;26.73;1.50;;;;;;;25.04;56.10;98332.81;7313833;19;129262;-38
2023/07/28 04:26:17;;;;;;;20.20;1.33;;;;;;;25.10;55.74;98341.75;7315257;19;130464;-39
2023/07/28 04:28:43;;;;;;;68.20;3.97;;;;;;;25.11;56.23;98344.19;7313554;19;130150;-38
2023/07/28 04:31:08;;;;;;;21.10;1.23;;;;;;;25.10;56.02;98347.84;7316084;19;130867;-43
2023/07/28 04:33:34;;;;;;;50.40;2.93;;;;;;;25.02;55.87;98332.22;7313501;19;129305;-39
2023/07/28 04:36:01;;;;;;;10.17;0.67;;;;;;;25.12;56.33;98345.03;7315293;19;129204;-38
2023/07/28 04:38:27;;;;;;;35.97;1.98;;;;;;;24.98;53.66;98359.06;7315248;19;129051;-40
2023/07/28 04:40:53;;;;;;;22.83;1.43;;;;;;;24.66;52.18;98354.34;7314260;19;129309;-41
2023/07/28 04:43:18;;;;;;;27.35;1.50;;;;;;;24.63;51.84;98366.03;7313814;19;129175;-41
2023/07/28 04:45:44;;;;;;;68.63;4.03;;;;;;;24.60;51.08;98360.34;7314279;19;129590;-40
2023/07/28 04:48:10;;;;;;;39.17;2.10;;;;;;;24.80;54.64;98356.91;7314720;19;129075;-41
2023/07/28 04:50:36;;;;;;;66.23;3.53;;;;;;;24.96;54.79;98351.38;7316524;19;130406;-40
2023/07/28 04:53:01;;;;;;;23.35;1.30;;;;;;;25.02;55.15;98360.31;7313656;19;129552;-41
2023/07/28 04:55:27;;;;;;;52.40;2.97;;;;;;;25.04;55.15;98360.94;7313929;19;129022;-39
2023/07/28 04:57:52;;;;;;;69.97;4.13;;;;;;;25.07;55.52;98363.19;7311683;19;129529;-42
2023/07/28 05:00:18;;;;;;;27.17;1.57;;;;;;;25.00;55.20;98347.38;7315042;19;130270;-40
2023/07/28 05:02:43;;;;;;;39.03;2.10;;;;;;;25.08;55.37;98359.53;7313398;19;129234;-39
2023/07/28 05:05:08;;;;;;;39.53;2.10;;;;;;;25.09;55.76;98355.94;7314237;19;128728;-40
2023/07/28 05:07:34;;;;;;;23.90;1.37;;;;;;;25.08;55.92;98354.28;7314230;19;129447;-39
2023/07/28 05:09:59;;;;;;;23.93;1.30;;;;;;;25.08;55.73;98360.38;7314487;19;130228;-40
2023/07/28 05:12:24;;;;;;;23.40;1.37;;;;;;;25.08;56.15;98359.53;7315759;19;130189;-40
2023/07/28 05:14:50;;;;;;;73.57;4.13;;;;;;;25.09;56.12;98356.72;7311225;19;129250;-35
2023/07/28 05:17:15;;;;;;;14.43;0.93;;;;;;;25.09;55.69;98361.97;7312855;19;131362;-42
2023/07/28 05:19:41;;;;;;;30.87;1.67;;;;;;;24.97;53.85;98365.34;7314974;19;130600;-42
2023/07/28 05:22:08;;;;;;;60.60;3.50;;;;;;;24.66;52.59;98370.09;7313074;19;130583;-40
2023/07/28 05:24:34;;;;;;;50.83;2.78;;;;;;;24.63;52.29;98365.22;7312697;19;129093;-41
2023/07/28 05:26:59;;;;;;;33.93;1.97;;;;;;;24.61;51.70;98375.13;7313764;19;129188;-39
2023/07/28 05:29:25;;;;;;;5.13;0.40;;;;;;;24.79;54.86;98386.03;7311560;19;129251;-41
2023/07/28 05:31:50;;;;;;;33.20;1.80;;;;;;;24.95;55.06;98377.84;7313970;19;131696;-39
2023/07/28 05:34:16;;;;;;;61.93;3.60;;;;;;;25.01;55.19;98372.66;7311326;19;130797;-39
2023/07/28 05:36:43;;;;;;;27.80;1.60;;;;;;;25.05;55.37;98387.06;7313420;19;131759;-41
2023/07/28 05:39:08;;;;;;;43.03;2.47;;;;;;;25.05;55.36;98394.94;7312488;19;130148;-39
2023/07/28 05:41:34;;;;;;;30.33;1.63;;;;;;;25.08;55.66;98385.84;7313361;19;129023;-38
2023/07/28 05:43:59;;;;;;;38.90;2.10;;;;;;;25.08;55.69;98386.66;7311195;19;129236;-41
2023/07/28 05:46:24;;;;;;;66.87;3.77;;;;;;;25.09;55.75;98395.38;7312459;19;128955;-38
2023/07/28 05:48:50;;;;;;;30.60;1.67;;;;;;;25.01;55.91;98374.44;7312711;19;129508;-39
2023/07/28 05:51:15;;;;;;;47.77;2.53;;;;;;;25.10;55.55;98386.47;7311921;19;129158;-39
2023/07/28 05:53:41;;;;;;;30.97;1.83;;;;;;;25.11;55.82;98390.72;7311205;19;129407;-40
2023/07/28 05:56:06;;;;;;;25.10;1.40;;;;;;;25.09;56.18;98382.22;7313187;19;129215;-40
2023/07/28 05:58:32;;;;;;;18.70;1.27;;;;;;;25.03;56.38;98389.06;7308920;19;129276;-41
2023/07/28 06:00:57;;;;;;;48.20;2.50;;;;;;;24.80;52.72;98395.53;7312500;19;128983;-40
2023/07/28 06:03:22;;;;;;;47.70;2.90;;;;;;;24.64;51.63;98393.13;7311260;19;129309;-42
2023/07/28 06:05:48;;;;;;;27.17;1.57;;;;;;;24.58;51.39;98391.25;7312943;19;129990;-42
2023/07/28 06:08:13;;;;;;;22.13;1.23;;;;;;;24.63;53.16;98399.38;7312705;19;129226;-42
2023/07/28 06:10:39;;;;;;;49.30;2.70;;;;;;;24.82;54.53;98396.16;7311765;19;128926;-40
2023/07/28 06:13:04;;;;;;;29.67;1.63;;;;;;;24.97;54.92;98402.16;7311299;19;128894;-38
2023/07/28 06:15:29;;;;;;;49.47;3.00;;;;;;;25.04;55.30;98405.66;7312517;19;130135;-41
2023/07/28 06:17:55;;;;;;;29.67;1.70;;;;;;;25.05;55.52;98408.09;7310153;19;129235;-40
2023/07/28 06:20:20;;;;;;;46.27;2.53;;;;;;;25.07;55.92;98410.53;7313383;19;129952;-39
2023/07/28 06:22:45;;;;;;;29.27;1.67;;;;;;;25.08;55.62;98406.88;7311981;19;129073;-42
2023/07/28 06:25:11;;;;;;;27.17;1.50;;;;;;;25.08;55.87;98418.22;7312431;19;129493;-40
2023/07/28 06:27:36;;;;;;;58.20;3.43;;;;;;;25.09;55.87;98408.53;7311356;19;129262;-42
2023/07/28 06:30:02;;;;;;;42.70;2.20;;;;;;;25.10;56.08;98415.41;7312660;19;130226;-36
2023/07/28 06:32:27;;;;;;;29.93;1.70;;;;;;;25.10;56.22;98412.78;7311949;19;129193;-40
2023/07/28 06:34:53;;;;;;;27.50;1.50;;;;;;;25.07;55.75;98418.41;7311703;19;132048;-36
2023/07/28 06:37:19;;;;;;;49.37;2.70;;;;;;;25.10;56.07;98425.94;7309952;19;130800;-37
2023/07/28 06:39:44;;;;;;;58.80;3.40;;;;;;;25.10;55.89;98421.50;7311477;19;129493;-40
2023/07/28 06:42:11;;;;;;;27.93;1.50;;;;;;;24.71;52.38;98431.63;7311588;19;130257;-36
2023/07/28 06:44:36;;;;;;;41.58;2.40;;;;;;;24.63;51.88;98444.03;7308895;19;130120;-35
2023/07/28 06:47:02;;;;;;;117.53;6.63;;;;;;;24.60;51.69;98444.44;7310007;19;131146;-37
2023/07/28 06:49:28;;;;;;;29.00;1.53;;;;;;;24.66;54.29;98433.19;7312532;19;129217;-37
2023/07/28 06:51:54;;;;;;;31.33;1.87;;;;;;;24.87;55.20;98435.84;7312149;19;129461;-34
2023/07/28 06:54:19;;;;;;;36.37;1.90;;;;;;;24.97;54.81;98434.53;7309311;19;131735;-38
2023/07/28 06:56:44;;;;;;;76.87;4.33;;;;;;;24.91;55.64;98424.75;7310691;19;130354;-40
2023/07/28 06:59:10;;;;;;;23.90;1.43;;;;;;;25.05;55.56;98434.41;7311660;19;129150;-37
2023/07/28 07:01:35;;;;;;;25.00;1.53;;;;;;;25.06;55.30;98437.81;7311012;19;129182;-39
2023/07/28 07:04:01;;;;;;;31.07;1.70;;;;;;;25.08;55.44;98438.44;7309723;19;131039;-35
2023/07/28 07:06:26;;;;;;;39.30;2.13;;;;;;;25.08;55.34;98441.06;7311671;19;130288;-38
2023/07/28 07:08:52;;;;;;;40.27;2.73;;;;;;;25.08;56.15;98443.72;7309387;19;130376;-38
2023/07/28 07:11:18;;;;;;;24.83;1.42;;;;;;;25.08;55.87;98447.16;7311424;19;130865;-38
2023/07/28 07:13:43;;;;;;;50.50;2.90;;;;;;;25.08;56.00;98444.53;7308540;19;131094;-36
2023/07/28 07:16:16;;;;;;;44.63;2.43;;;;;;;25.11;55.99;98448.56;7309155;19;130284;-32
2023/07/28 07:18:42;;;;;;;23.85;1.30;;;;;;;25.09;56.07;98450.63;7308765;19;129474;-39
2023/07/28 07:21:07;;;;;;;26.17;1.40;;;;;;;25.11;55.91;98453.84;7310362;19;129452;-38
2023/07/28 07:23:32;;;;;;;29.93;1.67;;;;;;;24.74;52.47;98464.63;7310249;19;130984;-37
2023/07/28 07:25:58;;;;;;;78.17;4.57;;;;;;;24.71;52.34;98467.66;7309589;19;131045;-39
2023/07/28 07:28:23;;;;;;;24.53;1.43;;;;;;;24.62;52.06;98468.72;7310771;19;130948;-37
2023/07/28 07:30:48;;;;;;;28.20;1.53;;;;;;;24.63;54.20;98460.63;7310331;19;129269;-38
2023/07/28 07:33:14;;;;;;;33.67;1.90;;;;;;;24.80;55.37;98450.72;7309123;19;130993;-37
2023/07/28 07:35:39;;;;;;;15.40;0.93;;;;;;;24.96;54.79;98461.00;7311351;19;131592;-39
2023/07/28 07:38:08;;;;;;;61.73;3.57;;;;;;;25.02;55.33;98468.13;7307750;19;129794;-38
2023/07/28 07:40:35;;;;;;;25.63;1.45;;;;;;;24.94;55.47;98455.91;7311486;19;131055;-37
2023/07/28 07:43:00;;;;;;;55.97;3.13;;;;;;;25.05;55.55;98476.47;7308901;19;130032;-38
2023/07/28 07:45:25;;;;;;;48.97;3.17;;;;;;;25.06;55.72;98475.47;7309786;19;129231;-33
2023/07/28 07:47:51;;;;;;;43.60;2.37;;;;;;;25.07;55.98;98471.03;7309823;19;129230;-34
2023/07/28 07:50:16;;;;;;;49.90;2.93;;;;;;;25.00;55.90;98452.56;7309510;19;129254;-34
2023/07/28 07:52:41;;;;;;;41.43;2.20;;;;;;;25.06;56.17;98472.00;7315257;19;129062;-30
2023/07/28 07:55:10;;;;;;;63.13;3.67;;;;;;;25.06;55.90;98467.56;7317005;19;129108;-41
2023/07/28 07:57:36;;;;;;;27.55;1.52;;;;;;;25.09;56.38;98477.69;7315145;19;129220;-38
2023/07/28 08:00:01;;;;;;;51.83;3.07;;;;;;;25.10;56.12;98478.53;7315774;19;129402;-40
2023/07/28 08:02:27;;;;;;;51.30;2.57;;;;;;;24.92;53.11;98491.31;7316847;19;129056;-36
2023/07/28 08:04:54;;;;;;;27.63;1.57;;;;;;;24.65;51.77;98477.03;7314731;19;130013;-35
2023/07/28 08:07:19;;;;;;;44.25;2.50;;;;;;;24.56;52.14;98479.97;7316042;19;129199;-35
2023/07/28 08:09:44;;;;;;;30.60;1.63;;;;;;;24.54;51.94;98479.34;7316399;19;128848;-33
2023/07/28 08:12:10;;;;;;;78.80;4.43;;;;;;;24.80;55.23;98482.28;7315668;19;129902;-31
2023/07/28 08:14:36;;;;;;;12.03;0.73;;;;;;;24.94;55.39;98473.53;7314965;19;129877;-37
2023/07/28 08:17:01;;;;;;;38.10;2.33;;;;;;;25.00;55.67;98476.22;7316252;19;129195;-37
2023/07/28 08:19:26;;;;;;;26.20;1.43;;;;;;;24.95;55.37;98454.13;7315575;19;130615;-36
2023/07/28 08:21:52;;;;;;;47.33;2.53;;;;;;;25.07;55.45;98478.91;7316875;19;130949;-38
2023/07/28 08:24:17;;;;;;;54.13;3.17;;;;;;;25.08;55.76;98483.16;7315217;19;130100;-39
2023/07/28 08:26:42;;;;;;;21.37;1.30;;;;;;;25.09;56.15;98476.91;7317127;19;129905;-34
2023/07/28 08:29:08;;;;;;;46.73;2.63;;;;;;;25.11;55.94;98482.78;7315115;19;129273;-41
2023/07/28 08:31:33;;;;;;;37.83;2.03;;;;;;;25.09;56.00;98484.81;7316568;19;130272;-37
2023/07/28 08:33:58;;;;;;;26.10;1.40;;;;;;;25.08;56.23;98483.97;7314758;19;129555;-34
2023/07/28 08:36:24;;;;;;;64.03;3.77;;;;;;;25.12;56.31;98489.69;7315590;19;130948;-35
2023/07/28 08:38:49;;;;;;;39.50;2.20;;;;;;;25.11;55.90;98493.28;7313713;19;129511;-32
2023/07/28 08:41:14;;;;;;;61.93;3.47;;;;;;;25.11;55.84;98501.19;7316178;19;130468;-34
2023/07/28 08:43:40;;;;;;;24.67;1.37;;;;;;;24.73;52.43;98491.91;7314758;19;129196;-39
2023/07/28 08:46:05;;;;;;;9.43;0.53;;;;;;;24.53;52.21;98477.72;7316104;19;129238;-31
2023/07/28 08:48:31;;;;;;;91.20;5.00;;;;;;;24.59;52.06;98506.72;7314275;19;129530;-32
2023/07/28 08:50:56;;;;;;;31.87;1.63;;;;;;;24.64;53.24;98511.41;7316359;19;129344;-33
2023/07/28 08:53:22;;;;;;;49.87;2.90;;;;;;;24.84;55.13;98515.09;7314734;19;130711;-38
2023/07/28 08:55:47;;;;;;;26.50;1.40;;;;;;;24.96;55.04;98517.03;7316004;19;129232;-28
2023/07/28 08:58:18;;;;;;;51.37;2.77;;;;;;;25.02;56.00;98512.84;7313956;19;129533;-34
2023/07/28 09:00:46;;;;;;;58.30;3.47;;;;;;;24.94;55.73;98513.78;7315455;19;130359;-36
2023/07/28 09:03:12;;;;;;;32.60;1.85;;;;;;;25.05;56.05;98523.81;7310708;19;131282;-33
2023/07/28 09:05:40;;;;;;;42.73;2.53;;;;;;;25.07;55.91;98526.25;7315990;19;129312;-37
2023/07/28 09:08:05;;;;;;;40.85;2.22;;;;;;;25.10;55.45;98525.88;7315145;19;129583;-34
2023/07/28 09:10:45;;;;;;;63.73;3.73;;;;;;;25.12;55.82;98529.13;7314003;19;130087;-41
2023/07/28 09:13:13;;;;;;;23.48;1.27;;;;;;;25.10;55.85;98525.88;7315035;19;129739;-37
2023/07/28 09:15:39;;;;;;;55.53;3.33;;;;;;;25.11;55.94;98532.75;7313506;19;130997;-33
2023/07/28 09:18:11;;;;;;;29.20;1.58;;;;;;;25.10;56.59;98518.81;7312792;19;129282;-33
2023/07/28 09:20:41;;;;;;;71.97;4.10;;;;;;;25.14;56.72;98529.78;7313074;19;129449;-35
2023/07/28 09:23:07;;;;;;;34.33;1.88;;;;;;;25.12;56.24;98527.28;7313926;19;130028;-39
2023/07/28 09:25:34;;;;;;;59.67;3.47;;;;;;;24.70;52.54;98534.34;7313386;19;128687;-40
2023/07/28 09:28:00;;;;;;;24.20;1.40;;;;;;;24.52;52.19;98520.75;7313800;19;130830;-33
2023/07/28 09:30:26;;;;;;;40.07;2.13;;;;;;;24.62;51.16;98531.78;7314152;19;130357;-37
2023/07/28 09:32:54;;;;;;;31.63;1.60;;;;;;;24.73;54.79;98533.97;7313663;19;129383;-40
2023/07/28 09:35:21;;;;;;;29.23;1.63;;;;;;;24.90;54.73;98527.47;7315144;19;130790;-35
2023/07/28 09:37:49;;;;;;;52.97;3.28;;;;;;;24.96;55.93;98530.19;7310674;19;129108;-36
2023/07/28 09:40:18;;;;;;;33.97;1.80;;;;;;;25.01;55.52;98533.06;7313317;19;130133;-30
2023/07/28 09:42:49;;;;;;;67.80;3.65;;;;;;;24.94;55.72;98516.41;7313965;19;129384;-37
2023/07/28 09:45:16;;;;;;;38.70;2.05;;;;;;;25.06;55.27;98529.88;7313873;19;129230;-39
2023/07/28 09:47:44;;;;;;;30.05;1.83;;;;;;;25.07;55.67;98531.50;7312877;19;129198;-31
2023/07/28 09:50:10;;;;;;;27.23;1.58;;;;;;;25.08;55.90;98538.38;7313441;19;129184;-33
2023/07/28 09:52:44;;;;;;;40.28;2.10;;;;;;;25.02;56.28;98523.38;7312526;19;129830;-42
2023/07/28 09:55:11;;;;;;;24.10;1.27;;;;;;;25.11;55.59;98535.38;7314295;19;129187;-35
2023/07/28 09:57:40;;;;;;;23.05;1.27;;;;;;;25.11;56.24;98538.84;7311898;19;129204;-42
2023/07/28 10:00:10;;;;;;;31.45;1.80;;;;;;;25.12;56.44;98539.66;7312866;19;130182;-33
2023/07/28 10:02:36;;;;;;;33.75;1.85;;;;;;;25.12;55.98;98529.94;7313775;19;130486;-35
2023/07/28 10:05:02;;;;;;;40.63;2.30;;;;;;;25.02;52.98;98528.63;7312985;19;128994;-34
2023/07/28 10:07:28;;;;;;;18.75;1.13;;;;;;;24.71;51.90;98530.72;7314144;19;129232;-34
2023/07/28 10:09:54;;;;;;;68.18;3.95;;;;;;;24.61;51.82;98530.19;7312222;19;129157;-32
2023/07/28 10:12:28;;;;;;;36.83;1.90;;;;;;;24.59;51.56;98526.91;7313421;19;129607;-34
2023/07/28 10:15:01;;;;;;;85.80;4.88;;;;;;;24.80;55.41;98529.59;7308217;19;128914;-42
2023/07/28 10:17:34;;;;;;;29.08;1.70;;;;;;;24.94;55.56;98531.38;7311955;19;129546;-34
2023/07/28 10:20:09;;;;;;;61.92;3.70;;;;;;;24.99;55.57;98544.78;7312037;19;130356;-33
2023/07/28 10:22:47;;;;;;;10.85;0.60;;;;;;;25.03;55.67;98540.75;7313096;19;129353;-33
2023/07/28 10:25:22;;;;;;;10.52;0.70;;;;;;;24.95;55.70;98528.56;7312508;19;128999;-31
2023/07/28 10:27:47;;;;;;;28.02;1.55;;;;;;;25.06;55.94;98529.88;7311818;19;129233;-33
2023/07/28 10:30:15;;;;;;;39.47;2.10;;;;;;;25.09;55.79;98545.28;7313485;19;129488;-35
2023/07/28 10:32:46;;;;;;;35.28;1.85;;;;;;;25.09;56.39;98550.56;7313988;19;130548;-37
2023/07/28 10:35:17;;;;;;;32.10;1.75;;;;;;;25.04;56.58;98531.91;7311257;19;129576;-33
2023/07/28 10:37:46;;;;;;;25.90;1.48;;;;;;;25.15;56.94;98547.16;7310460;19;128893;-30
2023/07/28 10:40:36;;;;;;;61.78;3.42;;;;;;;25.16;56.29;98549.59;7311096;19;130219;-41
2023/07/28 10:43:03;;;;;;;67.60;3.85;;;;;;;25.13;55.78;98549.16;7311659;19;129560;-34
2023/07/28 10:45:29;;;;;;;33.10;1.73;;;;;;;25.13;55.96;98546.53;7312657;19;129227;-37
2023/07/28 10:47:59;;;;;;;24.05;1.40;;;;;;;24.73;52.74;98547.09;7315093;19;129580;-35
2023/07/28 10:50:29;;;;;;;27.08;1.52;;;;;;;24.61;52.13;98538.06;7312843;19;129472;-34
2023/07/28 10:52:55;;;;;;;17.33;1.05;;;;;;;24.62;51.64;98535.25;7312517;19;129218;-32
2023/07/28 10:55:25;;;;;;;69.30;3.73;;;;;;;24.65;54.69;98542.75;7312337;19;129143;-36
2023/07/28 10:57:54;;;;;;;28.00;1.48;;;;;;;24.85;54.97;98549.09;7310852;19;129048;-32
2023/07/28 11:00:21;;;;;;;65.32;3.70;;;;;;;24.94;55.49;98542.69;7310768;19;129415;-33
2023/07/28 11:02:55;;;;;;;27.88;1.50;;;;;;;25.01;55.97;98537.50;7310991;19;131021;-33
2023/07/28 11:05:29;;;;;;;95.32;5.25;;;;;;;25.04;56.17;98531.91;7309458;19;129310;-35
2023/07/28 11:08:00;;;;;;;39.20;2.20;;;;;;;25.05;55.88;98541.41;7312653;19;129486;-33
2023/07/28 11:10:28;;;;;;;69.53;3.85;;;;;;;25.07;56.19;98531.50;7310543;19;129366;-37
2023/07/28 11:12:54;;;;;;;31.17;1.77;;;;;;;25.07;56.00;98531.50;7308490;19;129734;-33